Time;durP1;ratioP1;P1;durP2;ratioP2;P2;SDS_P1;SDS_P2;PMS_P1;PMS_P2;Temp;Humidity;BMP_temperature;BMP_pressure;BME280_temperature;BME280_humidity;BME280_pressure;Samples;Min_cycle;Max_cycle;Signal;HPM_P1;HPM_P2
2022/09/24 00:01:55;;;;;;;7.20;5.05;;;;;;;10.86;100.00;100823.00;5007736;28;20133;-78
2022/09/24 00:04:24;;;;;;;8.50;5.30;;;;;;;9.87;100.00;100640.53;5006747;28;20045;-78
2022/09/24 00:06:49;;;;;;;11.32;6.35;;;;;;;10.37;100.00;100733.50;5014846;28;20587;-77
2022/09/24 00:09:18;;;;;;;7.32;5.50;;;;;;;10.59;100.00;100786.13;5027051;28;20041;-78
2022/09/24 00:11:44;;;;;;;6.88;5.18;;;;;;;10.03;100.00;100693.94;5027125;28;20053;-78
2022/09/24 00:14:10;;;;;;;8.55;5.85;;;;;;;10.74;100.00;100797.56;5027722;28;20058;-77
2022/09/24 00:16:35;;;;;;;8.73;5.82;;;;;;;10.81;100.00;100816.00;5027374;28;20049;-77
2022/09/24 00:19:02;;;;;;;7.45;4.55;;;;;;;10.73;100.00;100805.47;5024867;28;20524;-80
2022/09/24 00:21:33;;;;;;;7.18;4.53;;;;;;;10.87;100.00;100837.03;5027427;28;20041;-77
2022/09/24 00:24:05;;;;;;;8.00;5.13;;;;;;;9.70;100.00;100676.25;5022730;28;20088;-79
2022/09/24 00:26:48;;;;;;;6.57;4.50;;;;;;;9.88;100.00;100684.25;5027164;28;20485;-79
2022/09/24 00:29:18;;;;;;;;;;;;;;;10.63;100.00;100804.53;5027720;28;20144;-76
2022/09/24 00:31:44;;;;;;;6.68;4.18;;;;;;;10.47;100.00;100777.31;5027330;28;19921;-78
2022/09/24 00:34:10;;;;;;;7.28;4.75;;;;;;;10.74;100.00;100807.19;5009179;28;20408;-79
2022/09/24 00:36:36;;;;;;;8.57;5.95;;;;;;;10.54;100.00;100805.34;5027582;28;20033;-79
2022/09/24 00:39:03;;;;;;;9.02;5.38;;;;;;;9.48;100.00;100622.78;5026787;28;20500;-78
2022/09/24 00:41:31;;;;;;;10.23;5.68;;;;;;;9.38;100.00;100626.19;5027043;28;20053;-79
2022/09/24 00:43:57;;;;;;;7.15;4.25;;;;;;;10.42;100.00;100812.25;5026934;28;20045;-80
2022/09/24 00:46:38;;;;;;;10.13;5.55;;;;;;;10.44;100.00;100802.63;5027249;28;20116;-77
2022/09/24 00:49:10;;;;;;;8.07;5.13;;;;;;;9.95;100.00;100776.91;5027222;28;20478;-79
2022/09/24 00:51:37;;;;;;;6.53;4.75;;;;;;;9.82;100.00;100780.28;5027621;28;20045;-78
2022/09/24 00:54:11;;;;;;;6.75;4.35;;;;;;;10.21;100.00;100797.19;5016636;28;20144;-79
2022/09/24 00:56:39;;;;;;;7.50;5.15;;;;;;;9.99;100.00;100778.66;5006862;28;20046;-81
2022/09/24 00:59:10;;;;;;;9.48;5.65;;;;;;;9.91;100.00;100772.50;5012166;28;20088;-78
2022/09/24 01:01:35;;;;;;;9.65;5.65;;;;;;;9.51;100.00;100678.69;5026664;28;20041;-79
2022/09/24 01:04:03;;;;;;;10.45;5.18;;;;;;;10.22;100.00;100799.84;5026798;28;20037;-80
2022/09/24 01:06:28;;;;;;;7.28;5.43;;;;;;;9.33;100.00;100662.81;5008830;28;20501;-78
2022/09/24 01:08:55;;;;;;;7.50;5.07;;;;;;;9.21;100.00;100634.78;5026422;28;20037;-78
2022/09/24 01:11:21;;;;;;;7.78;4.82;;;;;;;10.21;100.00;100818.16;5008785;28;20085;-76
2022/09/24 01:14:09;;;;;;;6.57;4.97;;;;;;;10.21;100.00;100815.53;5026201;28;20053;-79
2022/09/24 01:16:59;;;;;;;6.55;5.35;;;;;;;10.15;100.00;100816.38;5026199;28;20069;-80
2022/09/24 01:19:47;;;;;;;6.45;4.93;;;;;;;9.53;100.00;100723.25;5026571;28;20064;-81
2022/09/24 01:22:34;;;;;;;10.15;6.07;;;;;;;10.11;100.00;100827.72;5008662;28;20597;-78
2022/09/24 01:25:22;;;;;;;10.50;6.32;;;;;;;9.93;100.00;100829.31;5006415;28;20403;-77
2022/09/24 01:28:06;;;;;;;8.93;5.03;;;;;;;9.91;100.00;100827.53;5026733;28;20693;-78
2022/09/24 01:30:37;;;;;;;6.47;5.50;;;;;;;8.79;100.00;100603.84;5001776;28;20053;-78
2022/09/24 01:33:07;;;;;;;11.07;5.53;;;;;;;9.85;100.00;100806.50;5029800;28;20119;-77
2022/09/24 01:35:46;;;;;;;7.78;5.88;;;;;;;8.88;100.00;100662.38;5029951;28;20045;-77
2022/09/24 01:38:22;;;;;;;8.38;6.60;;;;;;;9.76;100.00;100799.44;5011986;28;20054;-78
2022/09/24 01:40:50;;;;;;;8.30;5.95;;;;;;;9.77;100.00;100808.19;5030187;28;20591;-78
2022/09/24 01:43:20;;;;;;;7.82;5.60;;;;;;;9.46;100.00;100805.25;5029887;28;20044;-77
2022/09/24 01:45:46;;;;;;;9.23;6.10;;;;;;;8.93;100.00;100664.19;5030394;28;20071;-77
2022/09/24 01:48:12;;;;;;;10.93;6.88;;;;;;;9.51;100.00;100799.19;5029854;28;20182;-78
2022/09/24 01:51:08;;;;;;;7.47;5.45;;;;;;;9.04;100.00;100701.81;5029486;28;20041;-78
2022/09/24 01:53:50;;;;;;;12.65;6.78;;;;;;;9.58;100.00;100779.19;5020443;28;20156;-79
2022/09/24 01:56:36;;;;;;;8.63;6.57;;;;;;;9.62;100.00;100809.81;5022996;28;20084;-78
2022/09/24 01:59:21;;;;;;;10.38;6.32;;;;;;;9.02;100.00;100700.91;5011685;28;20049;-79
2022/09/24 02:01:57;;;;;;;8.32;6.40;;;;;;;9.51;100.00;100804.44;5029966;28;20045;-76
2022/09/24 02:04:27;;;;;;;9.13;7.05;;;;;;;8.60;100.00;100650.72;5030006;28;20038;-79
2022/09/24 02:07:07;;;;;;;16.27;7.25;;;;;;;9.65;100.00;100825.53;5030217;28;20061;-79
2022/09/24 02:09:42;;;;;;;8.43;5.72;;;;;;;8.93;100.00;100693.84;5029696;28;20072;-79
2022/09/24 02:12:15;;;;;;;10.88;6.85;;;;;;;9.78;100.00;100833.53;5029409;28;20050;-80
2022/09/24 02:14:50;;;;;;;9.23;5.55;;;;;;;9.65;100.00;100838.66;5029647;28;20132;-79
2022/09/24 02:17:17;;;;;;;9.45;5.70;;;;;;;8.69;100.00;100651.72;5010087;28;20488;-81
2022/09/24 02:19:43;;;;;;;9.45;6.28;;;;;;;9.64;100.00;100822.91;5029543;28;20045;-78
2022/09/24 02:22:12;;;;;;;10.25;6.28;;;;;;;8.57;100.00;100681.19;5028776;28;20037;-77
2022/09/24 02:24:49;;;;;;;10.38;6.72;;;;;;;9.44;100.00;100841.91;5027217;28;20061;-77
2022/09/24 02:27:15;;;;;;;9.45;6.30;;;;;;;9.06;100.00;100757.66;5029299;28;20088;-77
2022/09/24 02:29:41;;;;;;;8.15;6.65;;;;;;;9.32;100.00;100812.06;5029211;28;20048;-78
2022/09/24 02:32:10;;;;;;;11.88;6.22;;;;;;;8.62;100.00;100674.28;5029045;28;20045;-79
2022/09/24 02:34:40;;;;;;;10.18;6.85;;;;;;;9.20;100.00;100812.78;5029285;28;20179;-77
2022/09/24 02:37:09;;;;;;;9.95;6.90;;;;;;;9.37;100.00;100798.19;5029246;28;20124;-76
2022/09/24 02:39:35;;;;;;;8.02;5.18;;;;;;;9.58;100.00;100831.59;5029858;28;20128;-80
2022/09/24 02:42:04;;;;;;;8.20;6.60;;;;;;;8.60;100.00;100668.16;5028280;28;20053;-78
2022/09/24 02:44:30;;;;;;;9.20;6.32;;;;;;;9.59;100.00;100829.84;5028687;28;20593;-79
2022/09/24 02:46:56;;;;;;;13.80;6.95;;;;;;;9.52;100.00;100832.38;5028973;28;20140;-79
2022/09/24 02:49:21;;;;;;;15.05;6.88;;;;;;;8.84;100.00;100712.03;5021232;28;20119;-79
2022/09/24 02:51:47;;;;;;;9.45;6.47;;;;;;;8.55;100.00;100681.19;5024200;28;20025;-78
2022/09/24 02:54:12;;;;;;;8.15;5.25;;;;;;;8.49;100.00;100688.94;5019437;28;20060;-78
2022/09/24 02:56:38;;;;;;;10.75;6.95;;;;;;;8.46;100.00;100694.13;5029303;28;20068;-78
2022/09/24 02:59:05;;;;;;;7.60;6.03;;;;;;;9.32;100.00;100823.44;5028998;28;20053;-78
2022/09/24 03:01:31;;;;;;;7.70;6.80;;;;;;;9.45;100.00;100812.22;5028705;28;20084;-78
2022/09/24 03:03:57;;;;;;;13.43;8.07;;;;;;;8.52;100.00;100664.56;5028582;28;20128;-78
2022/09/24 03:06:23;;;;;;;7.80;5.78;;;;;;;8.94;100.00;100784.56;5028531;28;20156;-78
2022/09/24 03:08:49;;;;;;;9.77;7.30;;;;;;;8.23;100.00;100675.50;5010145;28;20065;-79
2022/09/24 03:11:15;;;;;;;10.82;7.30;;;;;;;9.19;100.00;100839.84;5028306;28;20054;-77
2022/09/24 03:13:41;;;;;;;11.52;7.38;;;;;;;8.63;100.00;100768.47;5010264;28;20068;-76
2022/09/24 03:16:07;;;;;;;9.25;6.40;;;;;;;9.11;100.00;100824.06;5026819;28;20087;-77
2022/09/24 03:18:33;;;;;;;8.88;7.70;;;;;;;9.26;100.00;100852.16;5026656;28;20053;-78
2022/09/24 03:21:07;;;;;;;9.55;6.38;;;;;;;8.53;100.00;100731.72;5027933;28;20060;-79
2022/09/24 03:23:33;;;;;;;8.90;6.75;;;;;;;8.43;100.00;100705.44;5024636;28;20065;-79
2022/09/24 03:25:59;;;;;;;7.80;6.38;;;;;;;8.94;100.00;100813.34;5027489;28;20134;-79
2022/09/24 03:28:26;;;;;;;10.05;7.20;;;;;;;9.06;100.00;100821.38;5028041;28;20041;-78
2022/09/24 03:31:00;;;;;;;12.00;8.15;;;;;;;9.06;100.00;100847.56;5028312;28;20037;-75
2022/09/24 03:33:47;;;;;;;12.10;8.43;;;;;;;8.90;100.00;100858.69;5027860;28;20037;-80
2022/09/24 03:36:26;;;;;;;12.30;7.35;;;;;;;8.11;100.00;100715.41;5027573;28;20047;-80
2022/09/24 03:38:55;;;;;;;10.57;7.65;;;;;;;8.00;100.00;100730.91;5027901;28;20115;-78
2022/09/24 03:41:21;;;;;;;11.02;8.32;;;;;;;8.98;100.00;100856.16;5028054;28;20037;-79
2022/09/24 03:43:47;;;;;;;10.35;6.60;;;;;;;8.14;100.00;100710.22;5009693;28;20065;-78
2022/09/24 03:46:14;;;;;;;11.18;7.97;;;;;;;8.82;100.00;100841.97;5027801;28;20124;-80
2022/09/24 03:48:40;;;;;;;10.77;8.45;;;;;;;8.75;100.00;100847.97;5028293;28;20044;-79
2022/09/24 03:51:11;;;;;;;11.57;7.88;;;;;;;7.96;100.00;100720.38;5027859;28;20042;-79
2022/09/24 03:53:37;;;;;;;9.52;8.20;;;;;;;7.94;100.00;100717.75;5000736;28;20086;-77
2022/09/24 03:56:05;;;;;;;10.13;8.00;;;;;;;8.87;100.00;100888.31;5009733;28;20038;-80
2022/09/24 03:58:33;;;;;;;9.32;7.07;;;;;;;8.70;100.00;100840.06;5028003;28;20045;-79
2022/09/24 04:00:59;;;;;;;9.77;7.65;;;;;;;7.96;100.00;100729.13;5027321;28;20434;-79
2022/09/24 04:03:24;;;;;;;10.68;7.70;;;;;;;8.76;100.00;100868.06;5028407;28;20056;-78
2022/09/24 04:05:50;;;;;;;11.10;6.68;;;;;;;8.00;100.00;100748.31;5027669;28;20052;-79
2022/09/24 04:08:20;;;;;;;11.73;7.53;;;;;;;8.84;100.00;100900.44;5027260;28;20501;-79
2022/09/24 04:10:49;;;;;;;11.05;6.85;;;;;;;8.63;100.00;100912.34;5027227;28;20042;-77
2022/09/24 04:13:16;;;;;;;11.52;8.73;;;;;;;8.79;100.00;100897.75;5026954;28;20049;-78
2022/09/24 04:15:42;;;;;;;16.40;9.45;;;;;;;8.08;100.00;100796.38;5044326;28;20057;-78
2022/09/24 04:18:08;;;;;;;13.82;8.93;;;;;;;7.86;100.00;100750.72;5025574;28;20052;-78
2022/09/24 04:20:33;;;;;;;11.65;7.75;;;;;;;8.78;100.00;100896.00;5026949;28;20049;-79
2022/09/24 04:23:00;;;;;;;12.82;8.13;;;;;;;8.90;100.00;100929.34;5023730;28;20034;-79
2022/09/24 04:25:29;;;;;;;11.13;9.95;;;;;;;8.47;100.00;100828.38;5008889;28;20048;-79
2022/09/24 04:27:57;;;;;;;14.93;8.93;;;;;;;7.97;100.00;100754.38;5027267;28;20033;-79
2022/09/24 04:30:24;;;;;;;9.90;7.68;;;;;;;7.68;100.00;100701.69;5027492;28;20029;-78
2022/09/24 04:32:50;;;;;;;11.25;8.25;;;;;;;7.88;100.00;100777.75;5026906;28;20045;-80
2022/09/24 04:35:18;;;;;;;12.95;9.70;;;;;;;7.31;100.00;100659.28;5009410;28;20049;-78
2022/09/24 04:37:43;;;;;;;9.75;7.80;;;;;;;8.10;100.00;100763.31;5027226;28;20045;-78
2022/09/24 04:40:11;;;;;;;11.00;8.32;;;;;;;8.21;100.00;100793.09;5026542;28;20025;-79
2022/09/24 04:42:37;;;;;;;11.88;8.45;;;;;;;8.51;100.00;100883.38;5027744;28;20029;-78
2022/09/24 04:45:05;;;;;;;11.43;7.68;;;;;;;8.83;100.00;100930.97;5026949;28;20045;-78
2022/09/24 04:47:30;;;;;;;10.90;7.45;;;;;;;8.62;100.00;100888.78;5026666;28;20137;-78
2022/09/24 04:49:56;;;;;;;9.88;7.55;;;;;;;8.16;100.00;100801.72;5009415;28;20049;-77
2022/09/24 04:52:25;;;;;;;10.23;8.13;;;;;;;8.93;100.00;100937.22;5027376;28;20600;-78
2022/09/24 04:54:51;;;;;;;10.45;6.57;;;;;;;8.00;100.00;100782.28;5000816;28;20411;-79
2022/09/24 04:57:16;;;;;;;9.23;6.72;;;;;;;8.76;100.00;100918.66;5026829;28;20056;-77
2022/09/24 04:59:43;;;;;;;14.25;6.82;;;;;;;8.64;100.00;100887.94;5026769;28;20179;-79
2022/09/24 05:02:09;;;;;;;9.20;6.80;;;;;;;8.19;100.00;100835.75;5039387;28;20117;-78
2022/09/24 05:04:35;;;;;;;8.68;7.03;;;;;;;7.87;100.00;100782.97;5048777;28;20071;-76
2022/09/24 05:07:01;;;;;;;9.07;6.00;;;;;;;8.65;100.00;100888.81;5033970;28;20156;-79
2022/09/24 05:09:26;;;;;;;10.13;7.40;;;;;;;8.66;100.00;100906.25;5032203;28;20097;-77
2022/09/24 05:11:52;;;;;;;9.40;7.10;;;;;;;8.56;100.00;100900.00;5014140;28;20401;-79
2022/09/24 05:14:18;;;;;;;11.40;7.30;;;;;;;7.89;100.00;100776.91;5030251;28;20049;-78
2022/09/24 05:16:44;;;;;;;7.85;6.45;;;;;;;8.73;100.00;100905.50;5030241;28;20426;-79
2022/09/24 05:19:09;;;;;;;10.35;6.70;;;;;;;8.95;100.00;100924.16;5028871;28;20029;-78
2022/09/24 05:21:35;;;;;;;11.07;6.78;;;;;;;8.81;100.00;100875.13;5030843;28;20034;-77
2022/09/24 05:24:00;;;;;;;9.32;7.57;;;;;;;9.12;100.00;100934.88;5027219;28;20057;-78
2022/09/24 05:29:10;;;;;;;28.30;8.90;;;;;;;8.36;100.00;100797.69;5030284;28;20052;-79
2022/09/24 05:31:36;;;;;;;18.42;8.05;;;;;;;8.29;100.00;100787.09;5030531;28;20041;-80
2022/09/24 05:34:02;;;;;;;11.18;9.10;;;;;;;8.99;100.00;100933.81;5030504;28;20029;-78
2022/09/24 05:36:35;;;;;;;16.95;8.18;;;;;;;8.76;100.00;100848.00;5030794;28;20496;-79
2022/09/24 05:39:00;;;;;;;13.50;9.95;;;;;;;8.72;100.00;100799.09;5029950;28;20049;-77
2022/09/24 05:41:26;;;;;;;18.27;9.02;;;;;;;8.71;100.00;100783.38;5029989;28;20049;-77
2022/09/24 05:43:51;;;;;;;12.52;8.95;;;;;;;9.71;100.00;100946.13;5030269;28;20113;-77
2022/09/24 05:46:17;;;;;;;17.20;10.23;;;;;;;9.80;100.00;100953.22;5030020;28;20128;-79
2022/09/24 05:48:42;;;;;;;13.20;9.38;;;;;;;9.11;100.00;100776.94;5030409;28;20465;-77
2022/09/24 05:51:08;;;;;;;13.35;9.90;;;;;;;10.49;100.00;100945.25;5029963;28;20112;-77
2022/09/24 05:53:33;;;;;;;12.20;10.73;;;;;;;10.72;100.00;100951.56;5004766;28;20053;-79
2022/09/24 05:55:59;;;;;;;17.20;10.02;;;;;;;10.67;100.00;100924.38;5031316;28;20089;-79
2022/09/24 05:58:25;;;;;;;12.73;9.68;;;;;;;9.62;99.47;100719.81;5029465;28;20652;-79
2022/09/24 06:00:51;;;;;;;18.20;10.30;;;;;;;11.11;100.00;100964.97;5030452;28;20037;-77
2022/09/24 06:03:18;;;;;;;17.80;10.27;;;;;;;10.97;97.79;100941.25;5029746;28;20053;-78
2022/09/24 06:05:47;;;;;;;11.57;9.05;;;;;;;11.14;97.94;100944.88;5011245;28;20397;-77
2022/09/24 06:08:14;;;;;;;15.48;9.75;;;;;;;11.34;98.12;100962.50;5029395;28;20136;-77
2022/09/24 06:10:41;;;;;;;13.00;9.48;;;;;;;10.80;96.72;100853.63;5029409;28;20046;-75
2022/09/24 06:13:07;;;;;;;11.70;9.02;;;;;;;11.45;95.41;100978.31;5011612;28;20025;-79
2022/09/24 06:15:33;;;;;;;10.77;8.50;;;;;;;10.69;92.81;100841.28;5030035;28;20033;-77
2022/09/24 06:17:59;;;;;;;14.43;9.32;;;;;;;11.42;93.54;100958.16;5026384;28;20117;-78
2022/09/24 06:20:24;;;;;;;12.15;8.20;;;;;;;11.64;89.13;100960.91;5029414;28;20065;-78
2022/09/24 06:22:53;;;;;;;13.20;8.95;;;;;;;11.03;92.50;100837.97;5027217;28;20046;-78
2022/09/24 06:25:18;;;;;;;15.00;9.88;;;;;;;10.90;89.95;100839.69;5025001;28;20037;-78
2022/09/24 06:27:44;;;;;;;16.13;9.20;;;;;;;11.19;90.54;100853.84;5030084;28;20523;-80
2022/09/24 06:30:10;;;;;;;10.43;7.85;;;;;;;11.94;87.64;100971.56;5028846;28;20041;-78
2022/09/24 06:32:36;;;;;;;14.13;7.03;;;;;;;11.25;85.86;100852.97;5028362;28;20068;-77
2022/09/24 06:35:02;;;;;;;11.18;7.88;;;;;;;12.08;87.76;100983.88;5027763;28;20513;-76
2022/09/24 06:37:27;;;;;;;13.38;7.50;;;;;;;12.15;86.12;100981.28;5010486;28;20048;-78
2022/09/24 06:39:53;;;;;;;10.23;6.25;;;;;;;12.36;85.16;101009.41;5028581;28;20029;-76
2022/09/24 06:42:18;;;;;;;9.82;7.50;;;;;;;12.06;83.32;100936.53;5029287;28;20036;-78
2022/09/24 06:44:44;;;;;;;11.25;6.82;;;;;;;11.81;83.06;100899.59;5010866;28;20060;-78
2022/09/24 06:47:11;;;;;;;16.52;6.00;;;;;;;11.62;83.24;100872.38;5028309;28;20862;-77
2022/09/24 06:49:36;;;;;;;8.15;6.75;;;;;;;11.59;83.03;100851.34;5028421;28;20136;-77
2022/09/24 06:52:03;;;;;;;9.20;6.85;;;;;;;11.87;83.55;100885.66;5028283;28;20022;-78
2022/09/24 06:54:28;;;;;;;10.07;7.60;;;;;;;12.52;81.99;101015.53;5020354;28;20044;-77
2022/09/24 06:56:54;;;;;;;11.38;8.32;;;;;;;12.77;82.97;101012.97;5027709;28;20136;-76
2022/09/24 06:59:19;;;;;;;11.07;6.47;;;;;;;12.86;83.93;101016.47;5010008;28;20508;-76
2022/09/24 07:01:45;;;;;;;22.15;8.43;;;;;;;12.76;82.24;100996.28;5028101;28;20818;-76
2022/09/24 07:04:10;;;;;;;9.70;6.95;;;;;;;12.30;81.07;100911.13;5028233;28;20462;-80
2022/09/24 07:09:20;;;;;;;14.48;8.05;;;;;;;13.10;80.82;101036.66;5010493;28;20092;-78
2022/09/24 07:11:46;;;;;;;29.02;9.75;;;;;;;13.14;80.22;101020.88;5015149;28;20057;-78
2022/09/24 07:14:12;;;;;;;9.95;7.85;;;;;;;12.59;81.00;100921.66;5007779;28;20050;-78
2022/09/24 07:16:38;;;;;;;12.93;8.20;;;;;;;13.26;81.19;101028.75;5007581;28;20146;-77
2022/09/24 07:19:03;;;;;;;12.38;6.72;;;;;;;13.21;79.38;101018.22;4988385;28;20464;-76
2022/09/24 07:21:29;;;;;;;11.45;6.93;;;;;;;12.51;77.55;100897.97;4990874;28;20029;-77
2022/09/24 07:23:54;;;;;;;11.98;7.10;;;;;;;13.20;77.71;101003.25;5005201;28;20041;-79
2022/09/24 07:26:21;;;;;;;13.90;8.57;;;;;;;12.54;78.64;100900.59;5007684;28;20504;-77
2022/09/24 07:28:46;;;;;;;10.45;6.45;;;;;;;13.47;77.91;101023.47;5007375;28;20046;-79
2022/09/24 07:31:12;;;;;;;9.38;5.47;;;;;;;13.61;76.47;101025.22;5007883;28;20486;-77
2022/09/24 07:33:37;;;;;;;9.38;5.28;;;;;;;13.52;76.33;101003.25;5008335;28;20084;-78
2022/09/24 07:36:06;;;;;;;7.65;5.57;;;;;;;13.08;73.90;100922.47;5007588;28;20042;-78
2022/09/24 07:38:31;;;;;;;10.88;5.30;;;;;;;13.11;75.25;100919.00;5008104;28;20042;-78
2022/09/24 07:41:04;;;;;;;8.73;4.93;;;;;;;13.59;74.95;100988.28;4990066;28;20057;-77
2022/09/24 07:43:32;;;;;;;17.42;5.63;;;;;;;13.27;74.59;100907.56;5007391;28;20061;-78
2022/09/24 07:45:58;;;;;;;11.63;5.28;;;;;;;13.84;73.51;101014.59;5007460;28;20061;-77
2022/09/24 07:48:23;;;;;;;4.93;3.83;;;;;;;13.99;75.04;101017.16;5007522;28;20037;-76
2022/09/24 07:50:50;;;;;;;9.73;4.72;;;;;;;14.16;74.35;101032.91;5007404;28;20501;-78
2022/09/24 07:53:15;;;;;;;9.30;4.40;;;;;;;13.69;70.39;100960.13;5001717;28;20121;-76
2022/09/24 07:55:41;;;;;;;9.32;4.13;;;;;;;13.98;73.03;101003.97;5019432;28;20490;-77
2022/09/24 07:58:13;;;;;;;10.68;5.28;;;;;;;14.25;71.55;101043.41;5007132;28;20049;-77
2022/09/24 08:00:39;;;;;;;23.75;6.60;;;;;;;13.91;71.93;100959.16;5008069;28;20034;-78
2022/09/24 08:03:06;;;;;;;10.20;4.68;;;;;;;14.40;72.82;101034.56;5007578;28;20050;-78
2022/09/24 08:05:34;;;;;;;7.82;5.30;;;;;;;13.63;71.95;100892.47;5007164;28;20065;-77
2022/09/24 08:08:00;;;;;;;13.57;5.13;;;;;;;13.12;67.33;100796.03;5016595;28;20057;-77
2022/09/24 08:10:27;;;;;;;10.63;4.47;;;;;;;14.63;69.67;101034.41;5013670;28;20038;-77
2022/09/24 08:12:53;;;;;;;7.18;4.22;;;;;;;14.67;68.97;101045.84;5007793;28;20033;-78
2022/09/24 08:15:19;;;;;;;9.38;4.50;;;;;;;14.60;68.48;101031.81;5007875;28;20115;-76
2022/09/24 08:17:44;;;;;;;8.82;4.40;;;;;;;13.98;67.54;100903.69;5005197;28;20530;-77
2022/09/24 08:20:11;;;;;;;11.65;5.25;;;;;;;14.69;66.72;101015.03;5006938;28;20042;-77
2022/09/24 08:22:37;;;;;;;10.38;4.80;;;;;;;14.25;66.51;100931.69;5006620;28;20073;-78
2022/09/24 08:25:03;;;;;;;12.57;3.70;;;;;;;14.73;66.94;101030.84;5004457;28;20073;-77
2022/09/24 08:27:28;;;;;;;9.02;3.70;;;;;;;14.09;65.03;100917.69;5007207;28;20030;-77
2022/09/24 08:29:55;;;;;;;9.93;3.30;;;;;;;14.72;65.13;101030.84;5006743;28;20068;-78
2022/09/24 08:32:20;;;;;;;6.28;2.95;;;;;;;14.85;64.32;101048.38;5007204;28;20104;-78
2022/09/24 08:34:46;;;;;;;5.35;3.38;;;;;;;14.74;63.02;101037.88;4989606;28;20058;-76
2022/09/24 08:37:12;;;;;;;5.70;3.00;;;;;;;14.31;64.96;100958.06;5006919;28;20030;-78
2022/09/24 08:39:38;;;;;;;5.47;3.35;;;;;;;14.85;65.91;101042.22;4989755;28;20175;-78
2022/09/24 08:42:13;;;;;;;7.45;4.18;;;;;;;14.23;64.54;100891.22;5006266;28;20041;-78
2022/09/24 08:47:44;;;;;;;6.43;4.07;;;;;;;15.26;65.43;101046.28;5006443;28;20060;-77
2022/09/24 08:50:18;;;;;;;7.38;4.82;;;;;;;14.98;68.46;101038.56;5006849;28;20058;-78
2022/09/24 08:52:53;;;;;;;5.95;3.70;;;;;;;15.28;64.57;101042.72;5006127;28;20046;-78
2022/09/24 08:55:30;;;;;;;7.25;3.55;;;;;;;14.60;64.46;100904.16;4999626;28;21088;-76
2022/09/24 08:58:10;;;;;;;4.15;2.55;;;;;;;15.22;63.09;101048.09;5006799;28;20037;-78
2022/09/24 09:00:59;;;;;;;5.72;3.13;;;;;;;15.32;64.05;101022.44;5007279;28;20033;-78
2022/09/24 09:03:39;;;;;;;8.95;3.38;;;;;;;14.72;63.32;100906.69;5003607;28;20064;-77
2022/09/24 09:06:43;;;;;;;12.45;3.00;;;;;;;15.54;60.64;101036.31;5017814;28;20053;-78
2022/09/24 09:09:49;;;;;;;3.03;1.65;;;;;;;15.71;57.09;101037.03;5006673;28;20056;-78
2022/09/24 09:12:38;;;;;;;3.67;2.05;;;;;;;15.71;58.72;101014.97;4986890;28;20441;-78
2022/09/24 09:15:20;;;;;;;8.85;2.90;;;;;;;15.88;55.39;101034.19;5005624;28;20832;-77
2022/09/24 09:17:57;;;;;;;5.22;2.28;;;;;;;15.68;55.63;100984.09;4982942;28;20054;-77
2022/09/24 09:20:32;;;;;;;6.07;2.90;;;;;;;15.12;57.24;100869.28;4986872;28;20069;-78
2022/09/24 09:23:05;;;;;;;9.40;2.78;;;;;;;15.22;56.30;100893.84;4969806;28;20465;-78
2022/09/24 09:25:35;;;;;;;4.97;2.55;;;;;;;15.02;55.94;100886.16;5005473;28;20057;-77
2022/09/24 09:28:14;;;;;;;5.50;2.90;;;;;;;16.04;53.02;101040.19;5006414;28;20026;-79
2022/09/24 09:31:07;;;;;;;4.97;2.63;;;;;;;16.11;54.58;101020.69;5006881;28;20042;-79
2022/09/24 09:33:44;;;;;;;3.00;1.77;;;;;;;16.41;54.85;101030.00;5006667;28;20145;-79
2022/09/24 09:36:31;;;;;;;5.55;1.85;;;;;;;16.34;55.27;101030.06;5006511;28;20053;-78
2022/09/24 09:39:37;;;;;;;6.55;2.10;;;;;;;16.24;56.30;101029.31;4988717;28;20137;-79
2022/09/24 09:42:02;;;;;;;6.07;1.73;;;;;;;16.27;53.06;101033.69;5006225;28;20054;-79
2022/09/24 09:44:29;;;;;;;4.15;1.73;;;;;;;16.23;53.54;101001.09;5005941;28;20061;-79
2022/09/24 09:47:26;;;;;;;8.25;2.58;;;;;;;16.15;53.14;101022.38;5006141;28;20547;-79
2022/09/24 09:49:56;;;;;;;7.63;2.60;;;;;;;16.15;53.78;101021.50;5006258;28;20054;-77
2022/09/24 09:52:25;;;;;;;5.10;1.95;;;;;;;15.69;52.97;100940.03;5007899;28;20458;-78
2022/09/24 09:54:51;;;;;;;8.57;3.25;;;;;;;15.71;50.96;100912.69;5002627;28;20042;-79
2022/09/24 09:57:20;;;;;;;6.10;2.50;;;;;;;16.11;50.59;101020.69;5009511;28;20206;-78
2022/09/24 09:59:52;;;;;;;4.07;2.22;;;;;;;15.77;51.73;100959.34;5009408;28;20101;-79
2022/09/24 10:02:24;;;;;;;21.30;6.35;;;;;;;16.22;51.34;101024.06;5009420;28;20085;-77
2022/09/24 10:04:55;;;;;;;8.10;2.55;;;;;;;16.40;51.90;101017.63;5009545;28;20044;-79
2022/09/24 10:07:22;;;;;;;3.67;1.80;;;;;;;16.21;51.37;100990.53;4991968;28;20041;-79
2022/09/24 10:10:05;;;;;;;4.95;2.38;;;;;;;16.44;52.41;100994.63;5028242;28;20092;-80
2022/09/24 10:12:30;;;;;;;3.20;1.70;;;;;;;15.39;52.23;100849.59;5012264;28;20057;-77
2022/09/24 10:15:14;;;;;;;3.88;2.13;;;;;;;15.65;51.01;100865.09;5028808;28;20119;-77
2022/09/24 10:17:41;;;;;;;2.80;1.65;;;;;;;16.39;48.31;100996.47;5026663;28;20104;-79
2022/09/24 10:20:26;;;;;;;3.70;1.58;;;;;;;15.85;49.24;100877.22;5029109;28;20137;-80
2022/09/24 10:23:01;;;;;;;3.53;1.73;;;;;;;16.01;48.16;100903.47;5027122;28;20120;-78
2022/09/24 10:25:30;;;;;;;3.05;1.88;;;;;;;16.37;49.85;100906.44;5007734;28;20121;-78
2022/09/24 10:30:55;;;;;;;5.65;2.80;;;;;;;16.90;47.55;100953.28;5028762;28;20049;-78
2022/09/24 10:33:22;;;;;;;7.32;3.53;;;;;;;17.44;47.45;100938.13;5029032;28;20165;-78
2022/09/24 10:35:47;;;;;;;4.32;2.83;;;;;;;17.39;48.36;100868.34;5028250;28;20037;-78
2022/09/24 10:38:18;;;;;;;4.22;2.25;;;;;;;17.35;45.19;100856.09;5028684;28;20476;-77
2022/09/24 10:40:45;;;;;;;5.57;1.98;;;;;;;17.76;46.85;100882.63;5028398;28;20100;-77
2022/09/24 10:43:19;;;;;;;3.00;1.45;;;;;;;18.45;43.38;100958.97;5028462;28;20033;-80
2022/09/24 10:46:20;;;;;;;6.85;1.92;;;;;;;18.43;41.59;100966.09;5028699;28;20036;-78
2022/09/24 10:49:06;;;;;;;4.32;2.25;;;;;;;18.23;43.09;100961.25;5028951;28;20045;-78
2022/09/24 10:51:50;;;;;;;4.78;2.67;;;;;;;18.88;44.51;100957.06;5010658;28;20450;-79
2022/09/24 10:54:32;;;;;;;4.00;2.28;;;;;;;19.02;43.04;100952.25;5020989;28;20049;-77
2022/09/24 10:57:03;;;;;;;4.65;2.00;;;;;;;19.08;42.17;100945.91;5029988;28;20085;-78
2022/09/24 10:59:50;;;;;;;9.00;2.63;;;;;;;18.87;41.28;100963.28;5037443;28;20053;-79
2022/09/24 11:02:53;;;;;;;3.75;1.42;;;;;;;18.89;41.64;100942.84;5028567;28;20057;-79
2022/09/24 11:05:23;;;;;;;3.20;1.70;;;;;;;18.83;41.00;100904.00;5027613;28;20509;-77
2022/09/24 11:07:51;;;;;;;8.02;4.80;;;;;;;19.18;41.49;100940.31;5008818;28;20049;-78
2022/09/24 11:10:29;;;;;;;19.33;3.80;;;;;;;18.56;40.59;100933.00;5008056;28;20053;-79
2022/09/24 11:13:39;;;;;;;5.15;2.10;;;;;;;19.03;40.41;100935.38;5008338;28;20045;-80
2022/09/24 11:16:49;;;;;;;3.80;1.40;;;;;;;19.08;40.80;100945.91;4979982;28;20042;-78
2022/09/24 11:19:35;;;;;;;2.47;1.13;;;;;;;18.28;40.17;100831.81;4946726;28;20049;-79
2022/09/24 11:22:27;;;;;;;3.78;1.58;;;;;;;18.77;40.93;100934.28;4990158;28;20037;-78
2022/09/24 11:25:20;;;;;;;5.05;2.22;;;;;;;18.65;40.35;100936.34;4998156;28;20093;-79
2022/09/24 11:28:14;;;;;;;3.10;1.00;;;;;;;18.62;38.69;100936.44;5008073;28;20088;-78
2022/09/24 11:31:30;;;;;;;3.83;1.48;;;;;;;18.41;39.51;100935.16;5007823;28;20053;-79
2022/09/24 11:34:04;;;;;;;3.53;1.60;;;;;;;18.33;39.47;100930.91;4911616;29;20528;-79
2022/09/24 11:36:47;;;;;;;2.40;1.08;;;;;;;18.79;39.54;100931.59;5004019;28;20050;-79
2022/09/24 11:39:41;;;;;;;3.47;1.45;;;;;;;18.63;39.47;100914.25;5007715;28;20060;-79
2022/09/24 11:42:24;;;;;;;5.05;2.30;;;;;;;18.15;39.58;100838.38;5007319;28;20070;-79
2022/09/24 11:45:02;;;;;;;6.03;1.80;;;;;;;18.87;38.73;100931.38;5007466;28;20137;-77
2022/09/24 11:47:51;;;;;;;2.47;1.33;;;;;;;18.77;37.57;100925.44;5007278;28;20161;-78
2022/09/24 11:50:44;;;;;;;3.35;1.00;;;;;;;18.46;38.56;100899.59;5007245;28;20093;-79
2022/09/24 11:53:31;;;;;;;4.32;1.30;;;;;;;18.62;37.53;100926.66;4970174;28;20050;-78